Time;durP1;ratioP1;P1;durP2;ratioP2;P2;SDS_P1;SDS_P2;PMS_P1;PMS_P2;Temp;Humidity;BMP_temperature;BMP_pressure;BME280_temperature;BME280_humidity;BME280_pressure;Samples;Min_cycle;Max_cycle;Signal;HPM_P1;HPM_P2
2023/08/05 00:01:18;;;;;;;2.55;2.20;;;14.20;99.90;;;;;;4177657;28;20055;-60
2023/08/05 00:03:38;;;;;;;1.95;1.23;;;14.40;99.90;;;;;;4175402;28;20105;-60
2023/08/05 00:05:58;;;;;;;3.97;1.23;;;14.40;99.90;;;;;;4175393;28;20056;-60
2023/08/05 00:08:18;;;;;;;1.45;1.33;;;14.40;99.90;;;;;;4173118;28;20392;-60
2023/08/05 00:10:42;;;;;;;2.05;1.20;;;14.40;99.90;;;;;;4175267;28;20064;-60
2023/08/05 00:13:02;;;;;;;1.88;1.80;;;14.20;99.90;;;;;;4175098;28;20052;-59
2023/08/05 00:15:22;;;;;;;1.80;1.25;;;14.00;99.90;;;;;;4181218;28;20056;-59
2023/08/05 00:17:43;;;;;;;4.40;1.30;;;14.10;99.90;;;;;;4179621;28;20064;-60
2023/08/05 00:20:03;;;;;;;1.58;1.48;;;14.10;99.90;;;;;;4173937;28;20390;-60
2023/08/05 00:22:23;;;;;;;3.33;1.33;;;14.20;99.90;;;;;;4178202;28;20581;-59
2023/08/05 00:24:43;;;;;;;2.15;1.40;;;14.30;99.90;;;;;;4175431;28;20052;-59
2023/08/05 00:27:03;;;;;;;1.90;1.25;;;14.30;99.90;;;;;;4181261;28;20140;-59
2023/08/05 00:29:22;;;;;;;1.80;1.70;;;14.20;99.90;;;;;;4178594;28;20245;-59
2023/08/05 00:31:43;;;;;;;1.40;1.40;;;14.20;99.90;;;;;;4179221;28;20044;-60
2023/08/05 00:34:03;;;;;;;1.70;1.50;;;14.20;99.90;;;;;;4175113;28;20061;-59
2023/08/05 00:36:22;;;;;;;2.10;1.40;;;14.20;99.90;;;;;;4184315;28;20291;-60
2023/08/05 00:38:42;;;;;;;2.88;1.60;;;14.20;99.90;;;;;;4181780;28;20119;-60
2023/08/05 00:41:01;;;;;;;1.30;1.30;;;14.20;99.90;;;;;;4184817;28;20052;-60
2023/08/05 00:43:22;;;;;;;4.35;1.33;;;14.30;99.90;;;;;;4172610;28;20088;-60
2023/08/05 00:45:42;;;;;;;2.45;1.20;;;14.30;99.90;;;;;;4175723;28;20040;-60
2023/08/05 00:48:02;;;;;;;1.38;1.27;;;14.30;99.90;;;;;;4177945;28;20053;-60
2023/08/05 00:50:24;;;;;;;1.38;1.38;;;14.20;99.90;;;;;;4176811;28;20056;-60
2023/08/05 00:52:44;;;;;;;1.73;1.63;;;14.20;99.90;;;;;;4179744;28;20048;-59
2023/08/05 00:55:04;;;;;;;2.42;1.20;;;14.10;99.90;;;;;;4175475;28;20666;-60
2023/08/05 00:57:25;;;;;;;1.10;1.10;;;14.10;99.90;;;;;;4174046;28;20079;-60
2023/08/05 00:59:45;;;;;;;2.67;1.50;;;14.10;99.90;;;;;;4177875;28;20140;-60
2023/08/05 01:02:06;;;;;;;2.10;1.95;;;14.10;99.90;;;;;;4177530;28;20056;-60
2023/08/05 01:04:26;;;;;;;1.67;1.40;;;14.10;99.90;;;;;;4175905;28;20356;-60
2023/08/05 01:06:46;;;;;;;2.45;2.30;;;14.00;99.90;;;;;;4174245;28;20087;-60
2023/08/05 01:09:07;;;;;;;3.53;1.42;;;13.90;99.90;;;;;;4179750;28;20048;-60
2023/08/05 01:11:27;;;;;;;1.52;1.50;;;13.90;99.90;;;;;;4183403;28;20094;-59
2023/08/05 01:13:47;;;;;;;5.95;1.42;;;13.90;99.90;;;;;;4173467;28;20052;-61
2023/08/05 01:16:07;;;;;;;1.50;1.50;;;14.00;99.90;;;;;;4180063;28;20262;-59
2023/08/05 01:18:28;;;;;;;2.05;1.40;;;14.10;99.90;;;;;;4177397;28;20079;-60
2023/08/05 01:20:53;;;;;;;2.10;1.83;;;14.10;99.90;;;;;;4173399;28;20080;-60
2023/08/05 01:23:32;;;;;;;2.97;1.50;;;14.10;99.90;;;;;;4176591;28;20064;-60
2023/08/05 01:25:52;;;;;;;1.90;1.60;;;14.10;99.90;;;;;;4176051;28;20375;-60
2023/08/05 01:28:15;;;;;;;1.73;1.65;;;14.10;99.90;;;;;;4173961;28;20116;-60
2023/08/05 01:30:36;;;;;;;1.30;1.30;;;14.10;99.90;;;;;;4174555;28;20071;-60
2023/08/05 01:32:59;;;;;;;3.10;1.40;;;14.10;99.90;;;;;;4179218;28;20075;-60
2023/08/05 01:35:23;;;;;;;1.52;1.40;;;14.10;99.90;;;;;;4184315;28;20299;-60
2023/08/05 01:37:43;;;;;;;1.55;1.45;;;14.10;99.90;;;;;;4174533;28;20104;-60
2023/08/05 01:40:05;;;;;;;3.53;1.50;;;14.10;99.90;;;;;;4179250;28;20048;-60
2023/08/05 01:42:25;;;;;;;3.17;1.40;;;14.10;99.90;;;;;;4180248;28;20052;-60
2023/08/05 01:44:44;;;;;;;1.40;1.30;;;14.10;99.90;;;;;;4171971;28;20052;-60
2023/08/05 01:47:05;;;;;;;1.80;1.70;;;14.00;99.90;;;;;;4176480;28;20121;-60
2023/08/05 01:49:25;;;;;;;1.70;1.33;;;14.00;99.90;;;;;;4176638;28;20056;-60
2023/08/05 01:51:45;;;;;;;2.22;1.85;;;14.00;99.90;;;;;;4173038;28;20053;-60
2023/08/05 01:54:05;;;;;;;3.65;1.45;;;14.10;99.90;;;;;;4177767;28;20040;-60
2023/08/05 01:56:25;;;;;;;3.15;1.33;;;14.00;99.90;;;;;;4178295;28;20248;-60
2023/08/05 01:58:45;;;;;;;4.82;2.78;;;14.10;99.90;;;;;;4183907;28;20047;-60
2023/08/05 02:01:05;;;;;;;2.88;1.50;;;14.20;99.90;;;;;;4173577;28;20070;-60
2023/08/05 02:03:24;;;;;;;1.63;1.63;;;14.20;99.90;;;;;;4171842;28;20053;-60
2023/08/05 02:05:45;;;;;;;4.47;1.30;;;14.30;99.90;;;;;;4176645;28;20075;-60
2023/08/05 02:08:05;;;;;;;1.92;1.35;;;14.20;99.90;;;;;;4178123;28;20049;-60
2023/08/05 02:10:25;;;;;;;1.98;1.70;;;14.00;99.90;;;;;;4179401;28;20080;-60
2023/08/05 02:12:44;;;;;;;1.38;1.38;;;14.00;99.90;;;;;;4180078;28;20056;-60
2023/08/05 02:15:04;;;;;;;2.10;1.25;;;14.00;99.90;;;;;;4172836;28;20056;-59
2023/08/05 02:17:24;;;;;;;1.40;1.40;;;14.00;99.90;;;;;;4179170;28;20072;-60
2023/08/05 02:19:44;;;;;;;1.40;1.20;;;14.10;99.90;;;;;;4174249;28;20379;-60
2023/08/05 02:22:04;;;;;;;1.48;1.40;;;14.00;99.90;;;;;;4172790;28;20144;-60
2023/08/05 02:24:23;;;;;;;2.15;1.27;;;14.00;99.90;;;;;;4177120;28;20088;-60
2023/08/05 02:26:43;;;;;;;1.95;1.58;;;14.00;99.90;;;;;;4179154;28;20083;-60
2023/08/05 02:29:03;;;;;;;3.30;1.50;;;14.00;99.90;;;;;;4185763;28;20056;-60
2023/08/05 02:31:22;;;;;;;1.85;1.30;;;14.10;99.90;;;;;;4176586;28;20068;-60
2023/08/05 02:33:43;;;;;;;1.30;1.30;;;14.10;99.90;;;;;;4182370;28;20057;-60
2023/08/05 02:36:04;;;;;;;3.63;1.25;;;14.10;99.90;;;;;;4187526;28;20052;-60
2023/08/05 02:38:25;;;;;;;1.42;1.42;;;14.20;99.90;;;;;;4175781;28;20048;-60
2023/08/05 02:40:45;;;;;;;1.33;1.23;;;14.10;99.90;;;;;;4182065;28;20048;-59
2023/08/05 02:43:05;;;;;;;1.75;1.30;;;14.20;99.90;;;;;;4179205;28;20103;-59
2023/08/05 02:45:25;;;;;;;1.30;1.30;;;14.20;99.90;;;;;;4175110;28;20055;-59
2023/08/05 02:47:47;;;;;;;1.67;1.20;;;14.30;99.90;;;;;;4178769;28;20047;-60
2023/08/05 02:50:09;;;;;;;5.47;1.77;;;14.30;99.90;;;;;;4179021;28;20078;-60
2023/08/05 02:52:29;;;;;;;2.72;1.40;;;14.30;99.90;;;;;;4182531;28;20048;-60
2023/08/05 02:54:51;;;;;;;2.65;1.30;;;14.30;99.90;;;;;;4178812;28;20052;-60
2023/08/05 02:57:13;;;;;;;1.30;1.27;;;14.20;99.90;;;;;;4181641;28;20084;-60
2023/08/05 02:59:32;;;;;;;1.30;1.30;;;14.20;99.90;;;;;;4186195;28;20412;-60
2023/08/05 03:01:52;;;;;;;1.10;1.10;;;14.20;99.90;;;;;;4177526;28;20387;-60
2023/08/05 03:04:13;;;;;;;1.55;1.45;;;14.20;99.90;;;;;;4181120;28;20079;-59
2023/08/05 03:06:33;;;;;;;1.27;1.20;;;14.20;99.90;;;;;;4185841;28;20108;-60
2023/08/05 03:08:52;;;;;;;1.40;1.40;;;14.20;99.90;;;;;;4175717;28;20076;-59
2023/08/05 03:11:12;;;;;;;1.77;1.10;;;14.20;99.90;;;;;;4180406;28;20090;-60
2023/08/05 03:13:32;;;;;;;3.05;1.40;;;14.20;99.90;;;;;;4179472;28;20371;-60
2023/08/05 03:15:53;;;;;;;2.05;1.20;;;14.30;99.90;;;;;;4174718;28;20383;-60
2023/08/05 03:18:13;;;;;;;1.10;1.10;;;14.20;99.90;;;;;;4180839;28;20113;-60
2023/08/05 03:20:34;;;;;;;1.10;1.10;;;14.20;99.90;;;;;;4180514;28;20376;-59
2023/08/05 03:22:55;;;;;;;2.10;1.40;;;14.30;99.90;;;;;;4175576;28;20048;-60
2023/08/05 03:25:14;;;;;;;1.30;1.30;;;14.20;99.90;;;;;;4179143;28;20060;-60
2023/08/05 03:27:34;;;;;;;3.72;1.60;;;14.20;99.90;;;;;;4179540;28;20052;-60
2023/08/05 03:29:54;;;;;;;1.23;1.23;;;14.10;99.90;;;;;;4185970;28;20140;-60
2023/08/05 03:32:14;;;;;;;1.25;1.25;;;14.10;99.90;;;;;;4188061;28;20143;-60
2023/08/05 03:34:34;;;;;;;1.33;1.33;;;14.00;99.90;;;;;;4180312;28;20092;-60
2023/08/05 03:36:54;;;;;;;1.30;1.23;;;14.00;99.90;;;;;;4182846;28;20079;-60
2023/08/05 03:39:13;;;;;;;1.40;1.40;;;13.90;99.90;;;;;;4174489;28;20232;-60
2023/08/05 03:41:34;;;;;;;2.13;1.15;;;14.00;99.90;;;;;;4180782;28;20402;-59
2023/08/05 03:43:54;;;;;;;1.10;1.10;;;14.00;99.90;;;;;;4178047;28;20094;-60
2023/08/05 03:46:14;;;;;;;2.50;1.48;;;14.00;99.90;;;;;;4174685;28;20056;-60
2023/08/05 03:48:34;;;;;;;3.22;1.75;;;14.10;99.90;;;;;;4177301;28;20144;-60
2023/08/05 03:50:54;;;;;;;1.85;1.75;;;14.10;99.90;;;;;;4176937;28;20064;-61
2023/08/05 03:53:14;;;;;;;2.15;1.38;;;14.10;99.90;;;;;;4183496;28;20287;-60
2023/08/05 03:55:34;;;;;;;1.90;1.33;;;14.10;99.90;;;;;;4175108;28;20279;-60
2023/08/05 03:57:54;;;;;;;3.15;1.40;;;14.10;99.90;;;;;;4179835;28;20048;-60
2023/08/05 04:00:14;;;;;;;1.58;1.55;;;14.00;99.90;;;;;;4186020;28;20048;-60
2023/08/05 04:02:34;;;;;;;1.40;1.40;;;14.00;99.90;;;;;;4177205;28;20056;-59
2023/08/05 04:04:54;;;;;;;2.60;1.73;;;13.90;99.90;;;;;;4179125;28;20044;-59
2023/08/05 04:07:14;;;;;;;3.05;1.80;;;13.80;99.90;;;;;;4181805;28;20444;-59
2023/08/05 04:09:36;;;;;;;3.13;2.20;;;13.90;99.90;;;;;;4174047;28;20051;-60
2023/08/05 04:11:58;;;;;;;1.48;1.40;;;13.90;99.90;;;;;;4177916;28;20056;-60
2023/08/05 04:14:20;;;;;;;2.03;2.03;;;13.90;99.90;;;;;;4176875;28;20148;-60
2023/08/05 04:16:40;;;;;;;1.92;1.60;;;13.90;99.90;;;;;;4174377;28;20385;-60
2023/08/05 04:19:00;;;;;;;1.67;1.67;;;14.00;99.90;;;;;;4179491;28;20052;-60
2023/08/05 04:21:25;;;;;;;1.27;1.27;;;14.00;99.90;;;;;;4180921;28;20244;-60
2023/08/05 04:23:46;;;;;;;1.75;1.65;;;14.10;99.90;;;;;;4175915;28;20122;-60
2023/08/05 04:26:06;;;;;;;3.38;2.88;;;14.00;99.90;;;;;;4178449;28;20367;-60
2023/08/05 04:28:26;;;;;;;1.50;1.45;;;14.00;99.90;;;;;;4180011;28;20107;-59
2023/08/05 04:30:48;;;;;;;4.40;1.60;;;14.00;99.90;;;;;;4185572;28;20067;-60
2023/08/05 04:33:08;;;;;;;1.83;1.83;;;14.00;99.90;;;;;;4174161;28;20089;-60
2023/08/05 04:35:28;;;;;;;1.70;1.70;;;14.00;99.90;;;;;;4180617;28;20076;-60
2023/08/05 04:37:48;;;;;;;1.58;1.52;;;13.90;99.90;;;;;;4177450;28;20315;-60
2023/08/05 04:40:09;;;;;;;2.88;1.40;;;13.90;99.90;;;;;;4173679;28;20049;-60
2023/08/05 04:42:29;;;;;;;1.77;1.67;;;13.90;99.90;;;;;;4176865;28;20400;-61
2023/08/05 04:44:49;;;;;;;1.67;1.58;;;13.90;99.90;;;;;;4178643;28;20148;-60
2023/08/05 04:47:09;;;;;;;2.30;1.80;;;14.10;99.90;;;;;;4180634;28;20082;-60
2023/08/05 04:49:29;;;;;;;2.10;1.98;;;14.10;99.90;;;;;;4175278;28;20100;-60
2023/08/05 04:51:48;;;;;;;2.15;1.60;;;14.10;99.90;;;;;;4177781;28;20079;-60
2023/08/05 04:54:09;;;;;;;1.30;1.30;;;14.10;99.90;;;;;;4183994;28;20082;-60
2023/08/05 04:56:28;;;;;;;1.98;1.58;;;14.00;99.90;;;;;;4176765;28;20044;-60
2023/08/05 04:58:49;;;;;;;2.53;1.73;;;13.90;99.90;;;;;;4179213;28;20052;-60
2023/08/05 05:01:08;;;;;;;1.52;1.42;;;13.90;99.90;;;;;;4184063;28;20048;-60
2023/08/05 05:03:29;;;;;;;2.17;1.50;;;14.00;99.90;;;;;;4173383;28;20279;-60
2023/08/05 05:05:49;;;;;;;1.30;1.30;;;13.90;99.90;;;;;;4177402;28;20414;-59
2023/08/05 05:08:09;;;;;;;1.52;1.48;;;14.00;99.90;;;;;;4180017;28;20101;-59
2023/08/05 05:10:29;;;;;;;3.78;1.33;;;14.00;99.90;;;;;;4177958;28;20729;-60
2023/08/05 05:12:49;;;;;;;4.47;1.48;;;14.10;99.90;;;;;;4176655;28;20060;-60
2023/08/05 05:15:10;;;;;;;1.85;1.40;;;14.10;99.90;;;;;;4186290;28;20244;-59
2023/08/05 05:17:34;;;;;;;2.15;1.42;;;14.10;99.90;;;;;;4182040;28;20049;-59
2023/08/05 05:19:54;;;;;;;2.17;1.20;;;14.00;99.90;;;;;;4177403;28;20283;-60
2023/08/05 05:22:18;;;;;;;1.80;1.45;;;14.00;99.90;;;;;;4177151;28;20079;-59
2023/08/05 05:24:38;;;;;;;1.77;1.60;;;14.00;99.90;;;;;;4181486;28;20091;-60
2023/08/05 05:26:57;;;;;;;1.67;1.58;;;14.10;99.90;;;;;;4181262;28;20052;-59
2023/08/05 05:29:20;;;;;;;1.67;1.58;;;14.20;99.90;;;;;;4178999;28;20072;-60
2023/08/05 05:31:40;;;;;;;1.48;1.38;;;14.10;99.90;;;;;;4184075;28;20053;-59
2023/08/05 05:34:01;;;;;;;1.67;1.67;;;14.20;99.90;;;;;;4173042;28;20048;-60
2023/08/05 05:36:21;;;;;;;5.70;2.03;;;14.20;99.90;;;;;;4179338;28;20051;-60
2023/08/05 05:38:40;;;;;;;2.80;1.73;;;14.30;99.90;;;;;;4177178;28;20072;-60
2023/08/05 05:41:02;;;;;;;1.50;1.50;;;14.10;99.90;;;;;;4173578;28;20048;-59
2023/08/05 05:43:22;;;;;;;1.65;1.60;;;14.10;99.90;;;;;;4175713;28;20049;-59
2023/08/05 05:45:42;;;;;;;1.50;1.50;;;14.10;99.90;;;;;;4175274;28;20100;-59
2023/08/05 05:48:05;;;;;;;2.25;1.85;;;14.20;99.90;;;;;;4181747;28;20075;-59
2023/08/05 05:50:25;;;;;;;1.50;1.40;;;14.30;99.90;;;;;;4176688;28;20109;-59
2023/08/05 05:52:48;;;;;;;4.63;1.73;;;14.30;99.90;;;;;;4180842;28;20305;-59
2023/08/05 05:55:08;;;;;;;2.05;1.88;;;14.30;99.90;;;;;;4184065;28;20040;-59
2023/08/05 05:57:28;;;;;;;2.63;1.52;;;14.40;99.90;;;;;;4171932;28;20065;-59
2023/08/05 05:59:49;;;;;;;3.38;1.23;;;14.40;99.90;;;;;;4176926;28;20389;-58
2023/08/05 06:02:09;;;;;;;2.97;1.70;;;14.30;99.90;;;;;;4185426;28;20112;-59
2023/08/05 06:04:30;;;;;;;2.35;1.73;;;14.30;99.90;;;;;;4177736;28;20056;-59
2023/08/05 06:06:51;;;;;;;2.90;1.58;;;14.40;99.90;;;;;;4181938;28;20053;-58
2023/08/05 06:09:11;;;;;;;2.03;2.03;;;14.40;99.90;;;;;;4179080;28;20091;-58
2023/08/05 06:11:34;;;;;;;1.42;1.42;;;14.40;99.90;;;;;;4176196;28;20279;-58
2023/08/05 06:13:53;;;;;;;1.48;1.48;;;14.50;99.90;;;;;;4181051;28;20068;-59
2023/08/05 06:16:13;;;;;;;3.58;2.10;;;14.50;99.90;;;;;;4178015;28;20067;-58
2023/08/05 06:18:33;;;;;;;4.07;1.55;;;14.60;99.90;;;;;;4184492;28;20376;-58
2023/08/05 06:20:53;;;;;;;2.50;1.83;;;14.50;99.90;;;;;;4175833;28;20087;-58
2023/08/05 06:23:14;;;;;;;1.77;1.67;;;14.50;99.90;;;;;;4181244;28;20039;-59
2023/08/05 06:25:34;;;;;;;2.33;2.22;;;14.40;99.90;;;;;;4187047;28;20370;-58
2023/08/05 06:27:53;;;;;;;6.68;1.80;;;14.40;99.90;;;;;;4178831;28;20049;-58
2023/08/05 06:30:13;;;;;;;1.77;1.48;;;14.40;99.90;;;;;;4181989;28;20052;-58
2023/08/05 06:32:34;;;;;;;1.75;1.65;;;14.30;99.90;;;;;;4181674;28;20445;-58
2023/08/05 06:34:54;;;;;;;1.95;1.77;;;14.30;99.90;;;;;;4175530;28;20051;-58
2023/08/05 06:37:13;;;;;;;1.45;1.38;;;14.40;99.90;;;;;;4178277;28;20048;-58
2023/08/05 06:39:34;;;;;;;3.47;1.95;;;14.40;99.90;;;;;;4180801;28;20044;-58
2023/08/05 06:41:54;;;;;;;2.05;1.85;;;14.40;99.90;;;;;;4182281;28;20059;-58
2023/08/05 06:44:14;;;;;;;1.95;1.40;;;14.40;99.90;;;;;;4176520;28;20091;-58
2023/08/05 06:46:33;;;;;;;4.35;1.92;;;14.40;99.90;;;;;;4178696;28;20236;-58
2023/08/05 06:48:54;;;;;;;1.45;1.45;;;14.50;99.90;;;;;;4184941;28;20078;-57
2023/08/05 06:51:14;;;;;;;2.03;2.00;;;14.60;99.90;;;;;;4178019;28;20056;-58
2023/08/05 06:53:38;;;;;;;1.58;1.58;;;14.60;99.90;;;;;;4180426;28;20048;-58
2023/08/05 06:56:03;;;;;;;2.45;2.25;;;14.50;99.90;;;;;;4185426;28;20231;-58
2023/08/05 06:58:23;;;;;;;1.90;1.80;;;14.50;99.90;;;;;;4175616;28;20084;-58
2023/08/05 07:00:55;;;;;;;2.17;1.50;;;14.50;99.90;;;;;;4179822;28;20052;-58
2023/08/05 07:03:15;;;;;;;4.57;1.73;;;14.50;99.90;;;;;;4180531;28;20061;-57
2023/08/05 07:05:36;;;;;;;1.58;1.58;;;14.60;99.90;;;;;;4175057;28;20337;-58
2023/08/05 07:07:56;;;;;;;2.70;2.35;;;14.60;99.90;;;;;;4178082;28;20454;-58
2023/08/05 07:10:16;;;;;;;1.73;1.73;;;14.60;99.90;;;;;;4176604;28;20059;-58
2023/08/05 07:12:36;;;;;;;1.23;1.23;;;14.60;99.90;;;;;;4189061;28;20044;-58
2023/08/05 07:14:56;;;;;;;4.32;2.13;;;14.80;99.90;;;;;;4176188;28;20055;-58
2023/08/05 07:17:16;;;;;;;1.60;1.50;;;14.80;99.90;;;;;;4180032;28;20108;-58
2023/08/05 07:19:36;;;;;;;1.80;1.75;;;14.90;99.90;;;;;;4177077;28;20090;-57
2023/08/05 07:21:56;;;;;;;1.90;1.83;;;14.90;99.90;;;;;;4175197;28;20052;-57
2023/08/05 07:24:17;;;;;;;1.83;1.70;;;15.00;99.90;;;;;;4179974;28;20043;-58
2023/08/05 07:26:37;;;;;;;2.00;1.90;;;15.10;99.90;;;;;;4183989;28;20056;-57
2023/08/05 07:28:57;;;;;;;1.67;1.67;;;15.30;99.90;;;;;;4173480;28;20051;-57
2023/08/05 07:31:17;;;;;;;7.45;1.90;;;15.30;99.90;;;;;;4177070;28;20057;-57
2023/08/05 07:33:37;;;;;;;2.40;1.48;;;15.40;99.90;;;;;;4178979;28;20071;-57
2023/08/05 07:35:57;;;;;;;1.58;1.50;;;15.50;99.90;;;;;;4174751;28;20285;-57
2023/08/05 07:38:20;;;;;;;2.22;1.50;;;15.70;99.90;;;;;;4180280;28;20087;-57
2023/08/05 07:40:41;;;;;;;1.70;1.60;;;15.80;99.90;;;;;;4180790;28;20040;-57
2023/08/05 07:43:03;;;;;;;4.03;1.60;;;15.80;99.90;;;;;;4176000;28;20119;-58
2023/08/05 07:45:23;;;;;;;1.83;1.65;;;15.70;99.90;;;;;;4178720;28;20055;-57
2023/08/05 07:47:44;;;;;;;1.48;1.48;;;15.80;99.90;;;;;;4179016;28;20105;-57
2023/08/05 07:50:06;;;;;;;5.90;2.13;;;15.80;99.90;;;;;;4185650;28;20055;-57
2023/08/05 07:52:27;;;;;;;1.23;1.23;;;15.80;99.90;;;;;;4182136;28;20088;-57
2023/08/05 07:54:48;;;;;;;2.42;1.88;;;16.00;99.90;;;;;;4180029;28;20104;-57
2023/08/05 07:57:08;;;;;;;1.75;1.67;;;16.10;99.90;;;;;;4180552;28;20125;-56
2023/08/05 07:59:30;;;;;;;1.60;1.60;;;16.10;99.90;;;;;;4174290;28;20060;-57
2023/08/05 08:01:51;;;;;;;1.65;1.55;;;16.10;99.90;;;;;;4177774;28;20121;-57
2023/08/05 08:04:14;;;;;;;1.45;1.42;;;16.20;99.90;;;;;;4179196;28;20102;-57
2023/08/05 08:06:35;;;;;;;3.03;1.27;;;16.50;99.90;;;;;;4180456;28;20087;-57
2023/08/05 08:08:55;;;;;;;1.30;1.30;;;16.90;99.90;;;;;;4179733;28;20367;-57
2023/08/05 08:11:14;;;;;;;1.20;1.20;;;17.20;99.90;;;;;;4180461;28;20399;-56
2023/08/05 08:13:34;;;;;;;6.55;1.33;;;17.40;99.90;;;;;;4183859;28;20052;-56
2023/08/05 08:15:54;;;;;;;1.10;1.10;;;17.10;99.90;;;;;;4176284;28;20413;-56
2023/08/05 08:18:14;;;;;;;1.08;1.00;;;17.30;99.90;;;;;;4179242;28;20097;-57
2023/08/05 08:20:34;;;;;;;1.30;1.20;;;17.10;99.90;;;;;;4184832;28;20063;-56
2023/08/05 08:22:54;;;;;;;1.65;1.55;;;17.00;99.90;;;;;;4173435;28;20084;-57
2023/08/05 08:25:14;;;;;;;1.30;1.30;;;17.00;99.90;;;;;;4178857;28;20056;-57
2023/08/05 08:27:33;;;;;;;1.08;1.08;;;17.00;99.90;;;;;;4180415;28;20087;-56
2023/08/05 08:29:54;;;;;;;1.17;1.17;;;16.90;99.90;;;;;;4176053;28;20112;-56
2023/08/05 08:32:13;;;;;;;1.15;0.90;;;16.70;99.90;;;;;;4179872;28;20060;-56
2023/08/05 08:34:34;;;;;;;1.50;1.10;;;16.80;99.90;;;;;;4177515;28;20052;-56
2023/08/05 08:36:54;;;;;;;1.10;1.10;;;17.00;99.90;;;;;;4182457;28;20117;-57
2023/08/05 08:39:14;;;;;;;1.20;1.20;;;17.00;99.90;;;;;;4175636;28;20147;-56
2023/08/05 08:41:41;;;;;;;1.30;1.20;;;17.00;99.90;;;;;;4176573;28;20047;-57
2023/08/05 08:44:03;;;;;;;5.60;2.13;;;17.10;99.90;;;;;;4183700;28;20328;-56
2023/08/05 08:46:23;;;;;;;1.10;1.10;;;17.10;99.90;;;;;;4177552;28;20099;-56
2023/08/05 08:48:44;;;;;;;1.10;1.10;;;17.00;99.90;;;;;;4179634;28;20052;-56
2023/08/05 08:51:07;;;;;;;1.10;1.10;;;17.10;99.90;;;;;;4183845;28;20303;-56
2023/08/05 08:53:27;;;;;;;1.00;1.00;;;17.20;99.90;;;;;;4173647;28;20091;-56
2023/08/05 08:55:47;;;;;;;4.95;1.88;;;17.20;99.90;;;;;;4177863;28;20076;-57
2023/08/05 08:58:08;;;;;;;1.10;1.10;;;17.10;99.90;;;;;;4180301;28;20407;-56
2023/08/05 09:00:29;;;;;;;1.00;1.00;;;17.10;99.90;;;;;;4176493;28;20056;-56
2023/08/05 09:02:53;;;;;;;0.90;0.90;;;17.00;99.90;;;;;;4179744;28;20051;-55
2023/08/05 09:05:13;;;;;;;1.38;1.30;;;16.90;99.90;;;;;;4175190;28;20047;-56
2023/08/05 09:07:33;;;;;;;3.42;1.13;;;17.00;99.90;;;;;;4174395;28;20117;-57
2023/08/05 09:09:53;;;;;;;0.90;0.90;;;17.00;99.90;;;;;;4177599;28;20391;-57
2023/08/05 09:12:14;;;;;;;1.10;0.90;;;16.90;99.90;;;;;;4177294;28;20039;-59
2023/08/05 09:14:34;;;;;;;0.98;0.98;;;17.00;99.90;;;;;;4183618;28;20051;-59
2023/08/05 09:16:58;;;;;;;0.93;0.93;;;16.90;99.90;;;;;;4184365;28;20056;-60
2023/08/05 09:19:25;;;;;;;1.90;0.98;;;17.00;99.90;;;;;;4178953;28;20156;-60
2023/08/05 09:21:45;;;;;;;0.90;0.90;;;17.00;99.90;;;;;;4184185;28;20059;-60
2023/08/05 09:24:05;;;;;;;1.00;1.00;;;16.80;99.90;;;;;;4173251;28;20117;-60
2023/08/05 09:26:30;;;;;;;1.00;1.00;;;16.80;99.90;;;;;;4177553;28;20043;-60
2023/08/05 09:28:51;;;;;;;4.00;0.90;;;16.90;99.90;;;;;;4188442;28;20048;-59
2023/08/05 09:31:15;;;;;;;1.50;0.90;;;16.90;99.90;;;;;;4178035;28;20055;-60
2023/08/05 09:33:35;;;;;;;1.58;1.48;;;17.10;99.90;;;;;;4179204;28;20040;-59
2023/08/05 09:36:11;;;;;;;1.30;1.30;;;17.00;99.90;;;;;;4181127;28;20056;-59
2023/08/05 09:38:31;;;;;;;1.42;1.00;;;17.00;99.90;;;;;;4184189;28;20099;-60
2023/08/05 09:40:52;;;;;;;0.90;0.90;;;17.30;99.90;;;;;;4185026;28;20236;-60
2023/08/05 09:43:14;;;;;;;3.50;0.90;;;17.20;99.90;;;;;;4182539;28;20094;-60
2023/08/05 09:45:35;;;;;;;0.90;0.90;;;17.10;99.90;;;;;;4188057;28;20079;-59
2023/08/05 09:48:15;;;;;;;1.10;0.90;;;17.10;99.90;;;;;;4177072;28;20056;-59
2023/08/05 09:50:39;;;;;;;0.95;0.95;;;17.30;99.90;;;;;;4183273;28;20060;-59
2023/08/05 09:53:00;;;;;;;1.00;1.00;;;17.30;99.90;;;;;;4180291;28;20426;-60
2023/08/05 09:55:19;;;;;;;1.00;1.00;;;17.40;99.90;;;;;;4177041;28;20053;-60
2023/08/05 09:57:44;;;;;;;1.40;1.00;;;17.50;99.90;;;;;;4182215;28;20391;-60
2023/08/05 10:00:10;;;;;;;0.80;0.80;;;17.60;99.90;;;;;;4178849;28;20052;-60
2023/08/05 10:02:33;;;;;;;1.00;1.00;;;17.40;99.90;;;;;;4175762;28;20150;-60
2023/08/05 10:04:56;;;;;;;1.08;1.08;;;17.40;99.90;;;;;;4180098;28;20107;-59
2023/08/05 10:07:16;;;;;;;2.10;1.13;;;17.30;99.90;;;;;;4181886;28;20115;-59
2023/08/05 10:09:36;;;;;;;1.02;0.90;;;17.50;99.90;;;;;;4183470;28;20080;-60
2023/08/05 10:11:55;;;;;;;1.00;1.00;;;17.70;99.90;;;;;;4186511;28;20048;-59
2023/08/05 10:14:16;;;;;;;0.90;0.90;;;18.00;99.90;;;;;;4183843;28;20396;-60
2023/08/05 10:16:37;;;;;;;0.90;0.90;;;18.20;99.90;;;;;;4186929;28;20406;-59
2023/08/05 10:18:58;;;;;;;1.77;1.00;;;18.30;99.90;;;;;;4177654;28;20087;-59
2023/08/05 10:21:40;;;;;;;0.90;0.90;;;18.20;99.90;;;;;;4182626;28;20051;-58
2023/08/05 10:24:01;;;;;;;0.90;0.90;;;18.10;99.90;;;;;;4176907;28;20287;-58
2023/08/05 10:26:41;;;;;;;0.90;0.90;;;18.20;99.90;;;;;;4177195;28;20079;-57
2023/08/05 10:29:24;;;;;;;0.90;0.90;;;18.50;99.90;;;;;;4179250;28;20451;-57
2023/08/05 10:31:47;;;;;;;1.85;0.90;;;18.50;99.90;;;;;;4176716;28;20091;-57
2023/08/05 10:34:11;;;;;;;;;;;18.60;99.90;;;;;;4177411;28;20057;-57
2023/08/05 10:36:42;;;;;;;0.80;0.80;;;18.90;99.90;;;;;;4178621;28;19932;-57
2023/08/05 10:39:03;;;;;;;1.02;0.82;;;18.80;99.90;;;;;;4185530;28;20044;-57
2023/08/05 10:41:35;;;;;;;0.90;0.90;;;19.00;99.90;;;;;;4179405;28;20060;-57
2023/08/05 10:43:56;;;;;;;0.80;0.80;;;19.10;99.90;;;;;;4181588;28;20083;-57
2023/08/05 10:46:17;;;;;;;1.17;0.93;;;19.30;99.90;;;;;;4186579;28;20064;-56
2023/08/05 10:48:48;;;;;;;0.70;0.70;;;19.20;99.90;;;;;;4175485;28;20091;-57
2023/08/05 10:51:13;;;;;;;1.13;0.70;;;19.30;99.90;;;;;;4183623;28;20052;-57
2023/08/05 10:53:34;;;;;;;0.70;0.70;;;19.70;99.90;;;;;;4179562;28;20049;-57
2023/08/05 10:55:56;;;;;;;0.70;0.70;;;19.40;99.90;;;;;;4175031;28;20490;-57
2023/08/05 10:58:21;;;;;;;0.80;0.80;;;19.60;99.90;;;;;;4181459;28;20071;-57
2023/08/05 11:00:42;;;;;;;0.70;0.70;;;20.30;99.90;;;;;;4177946;28;20048;-57
2023/08/05 11:03:25;;;;;;;0.73;0.73;;;20.60;99.90;;;;;;4180984;28;20092;-57
2023/08/05 11:05:47;;;;;;;0.70;0.70;;;19.80;99.90;;;;;;4180077;28;20052;-57
2023/08/05 11:08:08;;;;;;;0.70;0.70;;;19.70;99.90;;;;;;4179756;28;20060;-57
2023/08/05 11:10:30;;;;;;;0.80;0.80;;;19.70;99.90;;;;;;4184485;28;20071;-56
2023/08/05 11:12:54;;;;;;;0.75;0.70;;;19.90;99.90;;;;;;4177067;28;20121;-57
2023/08/05 11:15:14;;;;;;;2.25;0.70;;;20.40;99.90;;;;;;4182349;28;20416;-57
2023/08/05 11:17:34;;;;;;;0.70;0.70;;;20.50;99.90;;;;;;4181444;28;20052;-57
2023/08/05 11:19:55;;;;;;;1.00;0.70;;;20.50;99.90;;;;;;4176536;28;20049;-57
2023/08/05 11:22:29;;;;;;;0.70;0.70;;;20.20;99.90;;;;;;4181952;28;20256;-56
2023/08/05 11:25:00;;;;;;;5.95;1.70;;;20.00;99.90;;;;;;4178385;28;20041;-57
2023/08/05 11:27:20;;;;;;;0.60;0.60;;;20.10;99.90;;;;;;4179801;28;20272;-57
2023/08/05 11:29:39;;;;;;;0.70;0.70;;;20.30;99.90;;;;;;4180231;28;20051;-56
2023/08/05 11:32:13;;;;;;;0.65;0.65;;;20.50;99.90;;;;;;4181006;28;20048;-57
2023/08/05 11:34:33;;;;;;;0.60;0.60;;;20.90;99.90;;;;;;4175332;28;20351;-57
2023/08/05 11:36:57;;;;;;;0.60;0.60;;;21.40;99.90;;;;;;4177721;28;20048;-57
2023/08/05 11:39:23;;;;;;;0.60;0.60;;;22.00;99.90;;;;;;4183322;28;20056;-57
2023/08/05 11:41:43;;;;;;;0.60;0.60;;;21.40;99.90;;;;;;4184705;28;20048;-57
2023/08/05 11:44:02;;;;;;;1.48;0.70;;;21.70;99.90;;;;;;4178141;28;20326;-57
2023/08/05 11:46:31;;;;;;;0.68;0.68;;;21.70;99.90;;;;;;4183255;28;20248;-56
2023/08/05 11:49:13;;;;;;;0.70;0.70;;;21.20;99.90;;;;;;4176008;28;20382;-57
2023/08/05 11:51:46;;;;;;;0.70;0.70;;;20.80;99.90;;;;;;4180611;28;20093;-57
2023/08/05 11:54:06;;;;;;;;;;;21.30;99.90;;;;;;4179343;28;20040;-57
2023/08/05 11:56:31;;;;;;;1.38;0.60;;;21.80;99.90;;;;;;4175043;28;20358;-56
2023/08/05 11:58:51;;;;;;;0.60;0.60;;;21.60;99.90;;;;;;4177013;28;20052;-57
2023/08/05 12:01:11;;;;;;;0.60;0.60;;;21.60;99.90;;;;;;4180306;28;20083;-57
2023/08/05 12:03:32;;;;;;;1.67;1.05;;;21.80;99.90;;;;;;4183729;28;20237;-56
2023/08/05 12:06:03;;;;;;;0.50;0.50;;;21.80;99.90;;;;;;4178244;28;20087;-56
2023/08/05 12:08:42;;;;;;;0.60;0.60;;;22.00;99.90;;;;;;4180364;28;20060;-57
2023/08/05 12:11:02;;;;;;;0.70;0.60;;;22.10;99.90;;;;;;4186241;28;20060;-57
2023/08/05 12:13:21;;;;;;;0.90;0.60;;;21.90;99.90;;;;;;4175328;28;20060;-57
2023/08/05 12:15:41;;;;;;;0.50;0.50;;;22.00;99.90;;;;;;4180344;28;20363;-57
2023/08/05 12:18:08;;;;;;;0.60;0.60;;;21.90;99.90;;;;;;4179254;28;20056;-56